createdAt,value
2018-11-13T00:00:13.519Z,19.23
2018-11-13T00:02:42.442Z,17.27
2018-11-13T00:05:11.368Z,16.50
2018-11-13T00:07:39.994Z,16.37
2018-11-13T00:10:10.254Z,16.70
2018-11-13T00:12:38.914Z,18.37
2018-11-13T00:15:07.756Z,16.90
2018-11-13T00:17:36.900Z,16.37
2018-11-13T00:20:07.012Z,16.93
2018-11-13T00:22:35.660Z,17.87
2018-11-13T00:25:04.352Z,16.90
2018-11-13T00:27:33.143Z,17.23
2018-11-13T00:30:01.869Z,17.20
2018-11-13T00:32:30.462Z,18.33
2018-11-13T00:34:59.010Z,17.13
2018-11-13T00:37:27.777Z,16.77
2018-11-13T00:39:56.425Z,17.07
2018-11-13T00:42:25.204Z,17.27
2018-11-13T00:44:54.032Z,16.70
2018-11-13T00:47:22.795Z,17.47
2018-11-13T00:49:51.381Z,16.83
2018-11-13T00:52:20.043Z,15.53
2018-11-13T00:54:48.625Z,18.57
2018-11-13T00:57:17.226Z,17.50
2018-11-13T00:59:45.934Z,17.20
2018-11-13T01:02:14.478Z,16.00
2018-11-13T01:04:43.402Z,15.87
2018-11-13T01:07:12.947Z,16.33
2018-11-13T01:09:41.499Z,18.23
2018-11-13T01:12:10.172Z,17.27
2018-11-13T01:14:38.841Z,17.90
2018-11-13T01:17:07.532Z,18.23
2018-11-13T01:19:36.100Z,17.00
2018-11-13T01:22:04.935Z,16.20
2018-11-13T01:24:33.640Z,17.43
2018-11-13T01:27:02.192Z,15.43
2018-11-13T01:29:30.841Z,16.73
2018-11-13T01:31:59.499Z,17.33
2018-11-13T01:34:28.232Z,17.60
2018-11-13T01:36:56.991Z,17.70
2018-11-13T01:39:25.525Z,16.07
2018-11-13T01:41:54.161Z,17.53
2018-11-13T01:44:22.791Z,16.50
2018-11-13T01:46:51.532Z,17.33
2018-11-13T01:49:20.151Z,16.30
2018-11-13T01:51:48.760Z,17.27
2018-11-13T01:54:17.308Z,17.43
2018-11-13T01:56:46.001Z,16.53
2018-11-13T01:59:14.932Z,17.50
2018-11-13T02:01:43.608Z,16.33
2018-11-13T02:04:12.278Z,16.47
2018-11-13T02:06:40.989Z,16.60
2018-11-13T02:09:10.481Z,18.50
2018-11-13T02:11:39.112Z,19.33
2018-11-13T02:14:07.624Z,17.67
2018-11-13T02:16:36.348Z,17.93
2018-11-13T02:19:05.079Z,18.70
2018-11-13T02:21:33.718Z,18.57
2018-11-13T02:24:02.556Z,19.20
2018-11-13T02:26:31.104Z,17.17
2018-11-13T02:28:59.810Z,18.57
2018-11-13T02:31:28.435Z,18.63
2018-11-13T02:33:57.100Z,18.97
2018-11-13T02:36:26.860Z,17.90
2018-11-13T02:38:55.500Z,18.53
2018-11-13T02:41:24.124Z,18.57
2018-11-13T02:43:52.869Z,19.30
2018-11-13T02:46:21.644Z,19.83
2018-11-13T02:48:50.212Z,19.83
2018-11-13T02:51:18.863Z,19.30
2018-11-13T02:53:47.554Z,18.80
2018-11-13T02:56:16.155Z,21.70
2018-11-13T02:58:44.815Z,21.33
2018-11-13T03:01:13.534Z,22.40
2018-11-13T03:03:42.212Z,19.13
2018-11-13T03:06:10.844Z,19.47
2018-11-13T03:08:39.433Z,20.03
2018-11-13T03:11:08.031Z,19.17
2018-11-13T03:13:36.927Z,19.43
2018-11-13T03:16:06.135Z,20.33
2018-11-13T03:18:34.817Z,21.17
2018-11-13T03:21:03.550Z,20.87
2018-11-13T03:23:32.096Z,20.10
2018-11-13T03:26:00.763Z,20.53
2018-11-13T03:28:29.375Z,20.47
2018-11-13T03:30:57.961Z,20.50
2018-11-13T03:33:26.612Z,21.30
2018-11-13T03:35:55.150Z,20.57
2018-11-13T03:38:23.777Z,21.87
2018-11-13T03:40:52.548Z,20.40
2018-11-13T03:43:21.311Z,21.77
2018-11-13T03:45:50.096Z,21.10
2018-11-13T03:48:18.782Z,20.83
2018-11-13T03:50:47.410Z,21.03
2018-11-13T03:53:16.001Z,20.47
2018-11-13T03:55:44.626Z,21.40
2018-11-13T03:58:13.409Z,21.70
2018-11-13T04:00:42.129Z,21.30
2018-11-13T04:03:10.754Z,21.50
2018-11-13T04:05:39.275Z,20.87
2018-11-13T04:08:07.850Z,22.30
2018-11-13T04:10:36.549Z,21.57
2018-11-13T04:13:05.391Z,21.33
2018-11-13T04:15:34.033Z,23.27
2018-11-13T04:18:02.572Z,22.30
2018-11-13T04:20:31.151Z,24.07
2018-11-13T04:23:00.065Z,22.47
2018-11-13T04:25:28.816Z,21.43
2018-11-13T04:27:57.555Z,21.90
2018-11-13T04:30:26.250Z,22.60
2018-11-13T04:32:54.804Z,23.30
2018-11-13T04:35:23.470Z,21.07
2018-11-13T04:37:52.023Z,20.90
2018-11-13T04:40:21.557Z,21.00
2018-11-13T04:42:51.511Z,22.10
2018-11-13T04:45:21.310Z,21.43
2018-11-13T04:47:50.446Z,22.10
2018-11-13T04:50:20.108Z,22.97
2018-11-13T04:52:48.804Z,22.80
2018-11-13T04:55:18.645Z,22.37
2018-11-13T04:57:48.260Z,23.57
2018-11-13T05:00:19.285Z,21.97
2018-11-13T05:02:48.128Z,21.53
2018-11-13T05:05:17.839Z,24.77
2018-11-13T05:07:47.793Z,24.33
2018-11-13T05:10:16.779Z,25.17
2018-11-13T05:12:46.211Z,22.70
2018-11-13T05:15:14.949Z,23.27
2018-11-13T05:17:44.423Z,23.40
2018-11-13T05:20:14.095Z,21.23
2018-11-13T05:22:42.729Z,22.07
2018-11-13T05:25:13.488Z,21.30
2018-11-13T05:27:42.424Z,22.00
2018-11-13T05:30:13.505Z,23.33
2018-11-13T05:32:42.023Z,20.93
2018-11-13T05:35:12.983Z,21.17
2018-11-13T05:37:42.776Z,22.20
2018-11-13T05:40:16.540Z,24.00
2018-11-13T05:42:45.285Z,22.10
2018-11-13T05:45:15.007Z,21.93
2018-11-13T05:47:43.708Z,22.07
2018-11-13T05:50:13.596Z,23.70
2018-11-13T05:52:42.909Z,22.03
2018-11-13T05:55:11.995Z,21.57
2018-11-13T05:57:40.731Z,20.33
2018-11-13T06:00:12.248Z,21.67
2018-11-13T06:02:40.999Z,21.47
2018-11-13T06:05:10.213Z,20.47
2018-11-13T06:07:38.912Z,22.37
2018-11-13T06:10:08.765Z,21.30
2018-11-13T06:12:37.432Z,24.63
2018-11-13T06:15:06.786Z,22.40
2018-11-13T06:17:35.538Z,22.83
2018-11-13T06:20:04.288Z,24.20
2018-11-13T06:22:33.022Z,22.97
2018-11-13T06:25:01.629Z,21.47
2018-11-13T06:27:30.411Z,21.53
2018-11-13T06:29:58.927Z,19.70
2018-11-13T06:32:27.554Z,20.20
2018-11-13T06:34:56.200Z,19.00
2018-11-13T06:37:24.858Z,19.40
2018-11-13T06:39:53.613Z,18.73
2018-11-13T06:42:22.210Z,18.80
2018-11-13T06:44:51.315Z,18.23
2018-11-13T06:47:19.948Z,18.20
2018-11-13T06:49:48.607Z,18.30
2018-11-13T06:52:17.315Z,17.80
2018-11-13T06:55:07.108Z,18.17
2018-11-13T06:57:35.785Z,16.90
2018-11-13T07:00:05.116Z,18.13
2018-11-13T07:02:33.792Z,17.07
2018-11-13T07:05:02.470Z,16.60
2018-11-13T07:07:31.272Z,16.60
2018-11-13T07:09:59.832Z,17.70
2018-11-13T07:12:28.413Z,17.13
2018-11-13T07:14:57.136Z,17.33
2018-11-13T07:17:25.762Z,17.93
2018-11-13T07:19:54.546Z,17.60
2018-11-13T07:22:23.235Z,17.97
2018-11-13T07:24:51.950Z,18.17
2018-11-13T07:27:20.643Z,16.97
2018-11-13T07:29:49.331Z,17.00
2018-11-13T07:32:17.913Z,16.73
2018-11-13T07:34:46.524Z,16.67
2018-11-13T07:37:15.193Z,16.10
2018-11-13T07:39:43.801Z,16.50
2018-11-13T07:42:13.584Z,16.30
2018-11-13T07:44:42.219Z,15.97
2018-11-13T07:47:11.013Z,14.93
2018-11-13T07:49:39.590Z,15.53
2018-11-13T07:52:08.747Z,15.60
2018-11-13T07:54:38.385Z,15.40
2018-11-13T07:57:08.267Z,14.63
2018-11-13T07:59:37.442Z,15.50
2018-11-13T08:02:06.405Z,15.00
2018-11-13T08:04:35.781Z,15.13
2018-11-13T08:07:04.660Z,13.70
2018-11-13T08:09:33.503Z,12.83
2018-11-13T08:12:02.182Z,11.57
2018-11-13T08:14:30.904Z,9.83
2018-11-13T08:16:59.553Z,9.73
2018-11-13T08:19:28.289Z,8.90
2018-11-13T08:21:57.031Z,8.83
2018-11-13T08:24:25.932Z,8.47
2018-11-13T08:26:54.633Z,8.47
2018-11-13T08:29:23.388Z,8.30
2018-11-13T08:31:51.948Z,7.40
2018-11-13T08:34:20.588Z,7.80
2018-11-13T08:36:49.210Z,6.63
2018-11-13T08:39:19.721Z,7.17
2018-11-13T08:41:49.224Z,6.73
2018-11-13T08:44:17.996Z,7.70
2018-11-13T08:46:46.730Z,8.33
2018-11-13T08:49:15.382Z,8.63
2018-11-13T08:51:44.083Z,8.77
2018-11-13T08:54:13.692Z,8.30
2018-11-13T08:56:42.377Z,7.60
2018-11-13T08:59:11.232Z,6.87
2018-11-13T09:01:39.834Z,6.50
2018-11-13T09:04:09.132Z,6.67
2018-11-13T09:06:37.817Z,6.33
2018-11-13T09:09:09.741Z,5.33
2018-11-13T09:11:38.431Z,5.80
2018-11-13T09:14:06.976Z,5.20
2018-11-13T09:16:35.655Z,4.90
2018-11-13T09:19:04.242Z,4.50
2018-11-13T09:21:33.085Z,4.63
2018-11-13T09:24:02.143Z,4.37
2018-11-13T09:26:30.864Z,4.10
2018-11-13T09:28:59.484Z,4.27
2018-11-13T09:31:28.158Z,4.10
2018-11-13T09:33:56.740Z,4.30
2018-11-13T09:36:25.376Z,3.67
2018-11-13T09:38:54.058Z,3.97
2018-11-13T09:41:22.700Z,3.33
2018-11-13T09:43:51.408Z,3.93
2018-11-13T09:46:20.164Z,3.00
2018-11-13T09:48:48.745Z,2.97
2018-11-13T09:51:17.312Z,2.80
2018-11-13T09:53:46.030Z,2.60
2018-11-13T09:56:14.627Z,2.80
2018-11-13T09:58:43.395Z,2.60
2018-11-13T10:01:12.140Z,2.80
2018-11-13T10:03:41.253Z,2.80
2018-11-13T10:06:09.270Z,2.47
2018-11-13T10:08:38.000Z,2.57
2018-11-13T10:11:06.665Z,2.43
2018-11-13T10:13:35.537Z,2.57
2018-11-13T10:16:04.084Z,2.17
2018-11-13T10:18:32.668Z,2.90
2018-11-13T10:21:01.223Z,2.90
2018-11-13T10:23:29.816Z,2.80
2018-11-13T10:25:58.476Z,2.37
2018-11-13T10:28:27.112Z,2.30
2018-11-13T10:30:55.675Z,2.50
2018-11-13T10:33:24.362Z,2.70
2018-11-13T10:35:53.011Z,3.30
2018-11-13T10:38:21.621Z,3.00
2018-11-13T10:40:50.411Z,3.00
2018-11-13T10:43:18.950Z,3.00
2018-11-13T10:45:47.580Z,2.50
2018-11-13T10:48:16.223Z,3.00
2018-11-13T10:50:44.984Z,3.00
2018-11-13T10:53:13.619Z,2.50
2018-11-13T10:55:42.152Z,2.40
2018-11-13T10:58:10.741Z,2.50
2018-11-13T11:00:44.540Z,3.00
2018-11-13T11:03:18.586Z,3.00
2018-11-13T11:05:47.172Z,2.13
2018-11-13T11:08:15.746Z,3.20
2018-11-13T11:10:44.442Z,3.37
2018-11-13T11:13:13.144Z,2.73
2018-11-13T11:15:41.737Z,2.83
2018-11-13T11:18:10.492Z,3.17
2018-11-13T11:20:39.062Z,3.10
2018-11-13T11:23:07.863Z,2.90
2018-11-13T11:25:36.531Z,3.23
2018-11-13T11:28:05.752Z,3.13
2018-11-13T11:30:34.459Z,3.20
2018-11-13T11:33:03.231Z,2.80
2018-11-13T11:35:31.961Z,2.87
2018-11-13T11:38:00.661Z,3.07
2018-11-13T11:40:29.313Z,3.10
2018-11-13T11:42:58.256Z,2.90
2018-11-13T11:45:26.991Z,3.53
2018-11-13T11:47:55.885Z,3.30
2018-11-13T11:50:25.023Z,2.97
2018-11-13T11:52:53.793Z,3.13
2018-11-13T11:55:22.654Z,2.83
2018-11-13T11:57:51.355Z,2.90
2018-11-13T12:00:24.360Z,3.00
2018-11-13T12:02:53.072Z,2.57
2018-11-13T12:05:21.947Z,2.70
2018-11-13T12:07:50.680Z,2.60
2018-11-13T12:10:19.440Z,2.60
2018-11-13T12:12:48.007Z,3.47
2018-11-13T12:15:16.616Z,2.60
2018-11-13T12:17:45.755Z,2.80
2018-11-13T12:20:15.397Z,2.40
2018-11-13T12:22:44.170Z,2.70
2018-11-13T12:25:17.933Z,2.90
2018-11-13T12:27:46.560Z,3.30
2018-11-13T12:30:17.459Z,3.70
2018-11-13T12:32:46.956Z,4.17
2018-11-13T12:35:16.648Z,3.80
2018-11-13T12:37:45.509Z,3.23
2018-11-13T12:40:15.567Z,2.70
2018-11-13T12:42:46.515Z,3.00
2018-11-13T12:45:15.006Z,2.60
2018-11-13T12:47:44.251Z,3.00
2018-11-13T12:50:14.371Z,3.60
2018-11-13T12:52:43.250Z,3.00
2018-11-13T12:55:16.533Z,2.63
2018-11-13T12:57:45.499Z,2.70
2018-11-13T13:00:17.128Z,2.80
2018-11-13T13:02:46.019Z,2.83
2018-11-13T13:05:14.734Z,2.80
2018-11-13T13:07:43.409Z,2.53
2018-11-13T13:10:13.867Z,2.30
2018-11-13T13:12:42.661Z,2.93
2018-11-13T13:15:13.514Z,2.10
2018-11-13T13:17:42.592Z,2.50
2018-11-13T13:20:14.804Z,2.30
2018-11-13T13:22:44.126Z,2.77
2018-11-13T13:25:14.405Z,2.37
2018-11-13T13:27:43.037Z,2.17
2018-11-13T13:30:14.237Z,2.53
2018-11-13T13:32:43.073Z,2.23
2018-11-13T13:36:05.090Z,2.10
2018-11-13T13:38:35.336Z,1.80
2018-11-13T13:41:04.666Z,2.00
2018-11-13T13:43:33.652Z,1.27
2018-11-13T13:46:02.293Z,0.93
2018-11-13T13:48:30.879Z,1.03
2018-11-13T13:50:59.573Z,0.80
2018-11-13T13:53:28.483Z,0.87
2018-11-13T13:55:57.095Z,1.30
2018-11-13T13:58:26.261Z,1.20
2018-11-13T14:00:55.874Z,0.97
2018-11-13T14:03:24.472Z,0.83
2018-11-13T14:05:53.283Z,0.93
2018-11-13T14:08:22.015Z,1.03
2018-11-13T14:10:50.610Z,1.33
2018-11-13T14:13:19.257Z,1.20
2018-11-13T14:15:48.036Z,1.10
2018-11-13T14:25:02.992Z,1.33
2018-11-13T14:27:31.698Z,1.50
2018-11-13T14:30:00.256Z,2.30
2018-11-13T14:32:29.151Z,2.17
2018-11-13T14:34:58.132Z,1.80
2018-11-13T14:37:26.743Z,2.20
2018-11-13T14:39:55.618Z,2.03
2018-11-13T14:42:24.404Z,2.10
2018-11-13T14:44:53.089Z,2.00
2018-11-13T14:47:21.663Z,2.27
2018-11-13T14:49:50.353Z,4.17
2018-11-13T14:52:19.227Z,3.37
2018-11-13T14:54:47.915Z,3.20
2018-11-13T14:57:16.586Z,2.67
2018-11-13T14:59:45.233Z,2.70
2018-11-13T15:02:13.915Z,2.63
2018-11-13T15:04:42.473Z,2.93
2018-11-13T15:07:11.068Z,3.40
2018-11-13T15:09:39.743Z,2.40
2018-11-13T15:12:08.306Z,2.90
2018-11-13T15:14:36.883Z,3.13
2018-11-13T15:17:05.627Z,2.80
2018-11-13T15:19:34.256Z,2.50
2018-11-13T15:22:02.932Z,2.87
2018-11-13T15:24:32.866Z,2.70
2018-11-13T15:27:01.441Z,2.40
2018-11-13T15:29:30.176Z,2.80
2018-11-13T15:31:59.047Z,3.00
2018-11-13T15:34:29.023Z,2.30
2018-11-13T15:36:57.683Z,2.90
2018-11-13T15:39:26.258Z,2.50
2018-11-13T15:41:54.977Z,1.80
2018-11-13T15:44:24.184Z,2.10
2018-11-13T15:46:52.879Z,2.40
2018-11-13T15:49:21.582Z,2.03
2018-11-13T15:51:50.273Z,2.17
2018-11-13T15:54:19.106Z,2.20
2018-11-13T15:56:48.009Z,2.83
2018-11-13T15:59:16.644Z,2.60
2018-11-13T16:01:45.337Z,5.50
2018-11-13T16:04:14.092Z,3.10
2018-11-13T16:06:42.908Z,2.70
2018-11-13T16:09:12.044Z,2.37
2018-11-13T16:11:41.201Z,2.73
2018-11-13T16:14:09.967Z,3.97
2018-11-13T16:16:38.709Z,3.30
2018-11-13T16:19:07.443Z,3.20
2018-11-13T16:21:36.124Z,2.80
2018-11-13T16:24:05.202Z,2.60
2018-11-13T16:26:33.901Z,2.50
2018-11-13T16:29:02.657Z,2.40
2018-11-13T16:31:33.179Z,2.30
2018-11-13T16:34:01.866Z,2.43
2018-11-13T16:36:30.983Z,2.77
2018-11-13T16:38:59.811Z,2.77
2018-11-13T16:41:28.695Z,2.70
2018-11-13T16:43:57.565Z,2.47
2018-11-13T16:46:26.428Z,3.03
2018-11-13T16:48:55.161Z,2.90
2018-11-13T16:51:24.127Z,2.80
2018-11-13T16:53:58.383Z,2.77
2018-11-13T16:56:27.035Z,3.43
2018-11-13T16:58:56.093Z,3.20
2018-11-13T17:01:24.888Z,3.27
2018-11-13T17:03:57.577Z,2.80
2018-11-13T17:06:26.591Z,2.80
2018-11-13T17:08:55.538Z,2.80
2018-11-13T17:11:24.424Z,3.53
2018-11-13T17:13:53.157Z,8.27
2018-11-13T17:16:21.845Z,3.50
2018-11-13T17:18:50.474Z,2.80
2018-11-13T17:21:19.348Z,3.00
2018-11-13T17:23:48.271Z,3.00
2018-11-13T17:26:17.058Z,2.70
2018-11-13T17:28:45.851Z,2.60
2018-11-13T17:31:14.544Z,2.77
2018-11-13T17:33:43.518Z,2.90
2018-11-13T17:36:12.522Z,2.70
2018-11-13T17:38:41.450Z,2.87
2018-11-13T17:41:10.154Z,2.80
2018-11-13T17:43:38.983Z,3.00
2018-11-13T17:46:08.598Z,3.47
2018-11-13T17:48:37.333Z,3.30
2018-11-13T17:51:06.331Z,3.00
2018-11-13T17:53:35.124Z,2.90
2018-11-13T17:56:03.893Z,2.63
2018-11-13T17:58:32.677Z,2.83
2018-11-13T18:01:02.093Z,2.80
2018-11-13T18:03:30.748Z,2.50
2018-11-13T18:06:00.684Z,3.20
2018-11-13T18:08:29.379Z,3.13
2018-11-13T18:10:58.305Z,3.33
2018-11-13T18:13:27.101Z,3.10
2018-11-13T18:15:55.847Z,2.90
2018-11-13T18:18:24.607Z,3.70
2018-11-13T18:20:53.546Z,3.07
2018-11-13T18:23:22.339Z,2.90
2018-11-13T18:25:51.161Z,3.17
2018-11-13T18:28:20.664Z,3.07
2018-11-13T18:30:49.480Z,3.97
2018-11-13T18:33:18.271Z,3.07
2018-11-13T18:35:47.296Z,4.27
2018-11-13T18:38:17.150Z,3.20
2018-11-13T18:40:45.868Z,3.53
2018-11-13T18:43:14.634Z,3.67
2018-11-13T18:45:43.321Z,3.27
2018-11-13T18:48:12.091Z,4.20
2018-11-13T18:50:42.363Z,7.53
2018-11-13T18:53:11.060Z,3.67
2018-11-13T18:55:39.904Z,3.20
2018-11-13T18:58:08.624Z,3.40
2018-11-13T19:00:39.087Z,3.10
2018-11-13T19:03:10.568Z,2.70
2018-11-13T19:05:39.345Z,3.47
2018-11-13T19:08:09.850Z,3.77
2018-11-13T19:10:41.916Z,3.23
2018-11-13T19:13:13.216Z,3.17
2018-11-13T19:15:43.682Z,3.10
2018-11-13T19:18:12.731Z,2.97
2018-11-13T19:20:42.445Z,3.10
2018-11-13T19:23:11.276Z,2.77
2018-11-13T19:25:40.968Z,2.97
2018-11-13T19:28:09.871Z,3.00
2018-11-13T19:30:38.714Z,3.13
2018-11-13T19:33:07.622Z,3.10
2018-11-13T19:35:36.864Z,4.07
2018-11-13T19:38:05.915Z,3.07
2018-11-13T19:40:35.300Z,2.80
2018-11-13T19:43:05.815Z,3.20
2018-11-13T19:45:34.691Z,3.07
2018-11-13T19:48:03.673Z,2.93
2018-11-13T19:50:33.882Z,2.83
2018-11-13T19:53:02.856Z,2.80
2018-11-13T19:55:32.046Z,3.63
2018-11-13T19:58:00.832Z,3.03
2018-11-13T20:00:30.917Z,2.83
2018-11-13T20:03:01.015Z,3.10
2018-11-13T20:05:30.483Z,3.40
2018-11-13T20:07:59.250Z,3.27
2018-11-13T20:10:29.598Z,3.70
2018-11-13T20:12:59.899Z,3.70
2018-11-13T20:15:29.315Z,3.57
2018-11-13T20:17:58.213Z,3.50
2018-11-13T20:20:29.826Z,3.80
2018-11-13T20:23:00.281Z,3.40
2018-11-13T20:25:30.409Z,3.73
2018-11-13T20:27:59.534Z,3.80
2018-11-13T20:30:33.607Z,4.20
2018-11-13T20:33:02.371Z,4.20
2018-11-13T20:35:31.462Z,4.33
2018-11-13T20:38:01.030Z,4.07
2018-11-13T20:40:31.360Z,4.77
2018-11-13T20:43:01.357Z,4.43
2018-11-13T20:45:30.121Z,4.93
2018-11-13T20:47:58.962Z,4.60
2018-11-13T20:50:29.350Z,4.53
2018-11-13T20:52:58.584Z,5.40
2018-11-13T20:55:27.676Z,5.40
2018-11-13T20:57:57.387Z,5.60
2018-11-13T21:00:30.343Z,5.00
2018-11-13T21:02:59.260Z,6.37
2018-11-13T21:05:28.232Z,5.30
2018-11-13T21:07:57.332Z,6.43
2018-11-13T21:10:30.931Z,6.20
2018-11-13T21:13:00.272Z,6.37
2018-11-13T21:15:30.080Z,6.50
2018-11-13T21:17:58.978Z,6.30
2018-11-13T21:20:27.960Z,5.97
2018-11-13T21:22:56.701Z,7.57
2018-11-13T21:25:26.541Z,7.43
2018-11-13T21:27:57.820Z,7.43
2018-11-13T21:30:26.626Z,7.63
2018-11-13T21:32:55.454Z,6.60
2018-11-13T21:35:24.389Z,6.47
2018-11-13T21:37:54.860Z,6.50
2018-11-13T21:40:25.257Z,6.33
2018-11-13T21:42:55.120Z,6.87
2018-11-13T21:45:24.987Z,7.03
2018-11-13T21:47:54.002Z,6.70
2018-11-13T21:50:24.643Z,6.30
2018-11-13T21:52:53.739Z,6.63
2018-11-13T21:55:23.729Z,6.27
2018-11-13T21:57:52.371Z,8.30
2018-11-13T22:00:23.518Z,9.33
2018-11-13T22:02:54.898Z,7.30
2018-11-13T22:05:24.724Z,5.70
2018-11-13T22:07:54.538Z,5.83
2018-11-13T22:10:23.687Z,5.53
2018-11-13T22:12:53.391Z,5.80
2018-11-13T22:15:23.643Z,6.10
2018-11-13T22:17:52.514Z,6.17
2018-11-13T22:20:24.169Z,6.40
2018-11-13T22:22:55.348Z,6.37
2018-11-13T22:25:27.892Z,5.73
2018-11-13T22:27:57.713Z,6.40
2018-11-13T22:30:28.711Z,6.30
2018-11-13T22:32:57.468Z,6.50
2018-11-13T22:35:26.200Z,6.97
2018-11-13T22:37:54.829Z,6.67
2018-11-13T22:40:24.845Z,6.77
2018-11-13T22:42:53.679Z,8.07
2018-11-13T22:45:26.468Z,6.57
2018-11-13T22:47:55.547Z,6.70
2018-11-13T22:50:25.740Z,7.00
2018-11-13T22:52:54.953Z,6.83
2018-11-13T22:55:23.818Z,7.07
2018-11-13T22:57:53.977Z,7.07
2018-11-13T23:00:24.082Z,7.10
2018-11-13T23:02:54.133Z,7.33
2018-11-13T23:05:22.859Z,7.13
2018-11-13T23:07:51.602Z,7.43
2018-11-13T23:10:20.393Z,7.70
2018-11-13T23:12:49.265Z,7.07
2018-11-13T23:15:20.094Z,7.23
2018-11-13T23:17:48.953Z,7.33
2018-11-13T23:20:19.031Z,7.20
2018-11-13T23:22:47.940Z,7.27
2018-11-13T23:25:18.090Z,7.67
2018-11-13T23:27:47.868Z,8.20
2018-11-13T23:30:18.606Z,8.13
2018-11-13T23:32:47.606Z,7.53
2018-11-13T23:35:16.667Z,7.80
2018-11-13T23:37:46.447Z,8.67
2018-11-13T23:40:17.373Z,8.13
2018-11-13T23:42:46.632Z,8.13
2018-11-13T23:45:16.361Z,9.07
2018-11-13T23:47:45.523Z,9.30
2018-11-13T23:50:14.833Z,9.40
2018-11-13T23:52:44.248Z,8.90
2018-11-13T23:55:14.099Z,9.03
2018-11-13T23:57:43.807Z,9.03
